Résultats sport de masse course à pied

Résultats : Trail des légendes de Brocéliande - TRAIL 49 KM

Classement général Classement Sexe Nom, prénom Catégorie Sexe Club Temps global
165 151 DESPREZ OLIVIER V1 M TO BE SPORT REDEG 29 06:01:27
167 152 LECLER DENIS V2 M GRANVILLE AC 06:02:09
168 153 LUCAS Stephane V1 M GUALOUPADEN 06:02:29
169 154 ESNAULT Christophe V1 M 06:02:29
170 155 LE MAUFF Didier V2 M 06:03:00
171 156 BESSET CEDRIC SE M ACHV NOUVOITOU 06:03:08
172 157 BAILLEUL Laurent SE M 06:03:22
173 158 WURTZ Christian V3 M TRIATHLON ATLANTIQUE CARQUEFOU 06:03:22
174 159 BERNARD Anthony SE M BROCELIANDE TRIATHLON 06:03:42
175 160 LE PICARD BRUNO V1 M TRAILER D ARMOR 06:03:51
176 161 MORICE Bernard V2 M AGILE TALON 06:03:55
177 162 HENRY Maxime SE M CHATEAU GONTIER TRIATHLON 06:04:01
178 163 LEROUX MICKAEL SE M 06:04:05
179 164 DEIMER Yann SE M ENTRE DUNES ET BOUCHOTS 06:05:14
180 165 GAMBIE LUDOVIC V2 M 06:05:14
181 166 MIMEY Eddy V1 M 06:08:16
182 167 HERY JOEL V2 M 06:08:16
183 168 ANDOUARD Corentin SE M TEAM BRONZINI ROAZHON 06:08:16
184 169 LE GOUALLEC ARNAUD V1 M FOULLEES DE CLEGUER 06:08:29
185 170 COUDON Rodrigue V1 M LM ENDURANCE 06:09:03
186 171 BEGOC Stéphane SE M COURIR SUR BREST 06:09:49
187 172 DOLO Christophe V1 M TRIATHLON ATLANTIQUE CARQUEFOU 06:10:13
188 173 GAUTIER Fabien SE M 06:10:19
189 174 LE LOUARNE Laurent SE M 06:10:26
190 175 RICHARD Kevin SE M TEAM RIDER TATTOO 06:10:32
191 176 HINAULT François SE M QUIMPER TRIATHLON 06:11:45
193 177 GUERIN Patrice V1 M LES JOGGERS DU COUESNON 06:11:58
194 178 FERRON DAVID V1 M SAINT GREGOIRE TRIATHLON 06:12:23
195 179 QUENTIN JEAN-MARIE V2 M ART NORMANDIE 06:12:25
196 180 LE ROUX CYRIL SE M 06:13:47
198 181 LAVIGNE Cécilian V1 M TCMB 06:16:09
199 182 CLEMENT FRANCOIS-REGIS V1 M MEGACLUB 06:16:51
200 183 LENOIR Vincent V1 M 06:17:13
201 184 FRADET Patrice V1 M BE ALIVE 06:17:52
202 185 LEFEBVRE DAVID V1 M ART NORMANDIE 06:18:22
203 186 LAIRYS Alexis SE M 06:18:32
204 187 ROUE Mathias SE M 06:18:44
205 188 DEWAME STEPHANE V1 M L ULTRA MARIN 06:18:45
206 189 LEPRETRE Thierry V1 M ATHLETIC BAIE DES EBIHENS 06:18:56
207 190 RICHARD NICOLAS SE M RAFA TEAM 06:19:06
208 191 LALANDE Jeremy SE M 06:19:07
209 192 LE POULIQUEN Yann V1 M PLANCOET ARGUENON RUNNING 06:19:43
210 193 LEMONNIER SAMUEL V1 M ATHLETIC BAIE DES EBIHENS 06:20:42
211 194 LHOTELLIER Pascal V1 M 06:21:16
212 195 FREMONT Laurent V1 M 06:21:48
214 196 LEROSEY MICHAEL V1 M 06:22:41
215 197 ROCHET Stephane V1 M SNLS44 06:23:23
216 198 OGER Ludovic SE M 06:23:23
217 199 KERLEAU Pascal V2 M 06:24:00
218 200 GAUTIER Alan SE M 06:24:50